sensor_id;sensor_type;location;lat;lon;timestamp;P1;durP1;ratioP1;P2;durP2;ratioP2
55435;SDS011;41307;53.142;6.430;2023-08-21T00:00:47;2.22;;;0.90;;
55435;SDS011;41307;53.142;6.430;2023-08-21T00:03:13;1.80;;;0.77;;
55435;SDS011;41307;53.142;6.430;2023-08-21T00:05:39;2.55;;;0.85;;
55435;SDS011;41307;53.142;6.430;2023-08-21T00:08:05;1.48;;;0.75;;
55435;SDS011;41307;53.142;6.430;2023-08-21T00:10:31;1.73;;;0.77;;
55435;SDS011;41307;53.142;6.430;2023-08-21T00:12:58;1.80;;;0.95;;
55435;SDS011;41307;53.142;6.430;2023-08-21T00:15:23;2.92;;;1.20;;
55435;SDS011;41307;53.142;6.430;2023-08-21T00:17:49;2.25;;;0.90;;
55435;SDS011;41307;53.142;6.430;2023-08-21T00:20:15;1.75;;;0.90;;
55435;SDS011;41307;53.142;6.430;2023-08-21T00:22:41;2.92;;;1.00;;
55435;SDS011;41307;53.142;6.430;2023-08-21T00:25:06;3.63;;;1.08;;
55435;SDS011;41307;53.142;6.430;2023-08-21T00:27:32;3.75;;;0.75;;
55435;SDS011;41307;53.142;6.430;2023-08-21T00:29:59;2.13;;;0.80;;
55435;SDS011;41307;53.142;6.430;2023-08-21T00:32:25;3.70;;;1.00;;
55435;SDS011;41307;53.142;6.430;2023-08-21T00:34:51;1.92;;;0.90;;
55435;SDS011;41307;53.142;6.430;2023-08-21T00:37:17;2.63;;;0.93;;
55435;SDS011;41307;53.142;6.430;2023-08-21T00:39:42;2.85;;;0.95;;
55435;SDS011;41307;53.142;6.430;2023-08-21T00:42:08;4.03;;;0.90;;
55435;SDS011;41307;53.142;6.430;2023-08-21T00:44:34;1.15;;;0.77;;
55435;SDS011;41307;53.142;6.430;2023-08-21T00:46:59;3.40;;;1.02;;
55435;SDS011;41307;53.142;6.430;2023-08-21T00:49:26;3.10;;;1.30;;
55435;SDS011;41307;53.142;6.430;2023-08-21T00:51:52;2.30;;;0.93;;
55435;SDS011;41307;53.142;6.430;2023-08-21T00:54:19;1.88;;;1.00;;
55435;SDS011;41307;53.142;6.430;2023-08-21T00:56:45;2.58;;;1.17;;
55435;SDS011;41307;53.142;6.430;2023-08-21T00:59:11;3.08;;;0.90;;
55435;SDS011;41307;53.142;6.430;2023-08-21T01:01:37;2.40;;;0.90;;
55435;SDS011;41307;53.142;6.430;2023-08-21T01:04:03;2.83;;;0.80;;
55435;SDS011;41307;53.142;6.430;2023-08-21T01:06:29;1.55;;;0.80;;
55435;SDS011;41307;53.142;6.430;2023-08-21T01:12:08;2.55;;;0.85;;
55435;SDS011;41307;53.142;6.430;2023-08-21T01:14:54;2.88;;;0.88;;
55435;SDS011;41307;53.142;6.430;2023-08-21T01:17:25;2.17;;;0.82;;
55435;SDS011;41307;53.142;6.430;2023-08-21T01:19:53;2.85;;;0.80;;
55435;SDS011;41307;53.142;6.430;2023-08-21T01:22:20;0.98;;;0.70;;
55435;SDS011;41307;53.142;6.430;2023-08-21T01:24:50;2.10;;;0.70;;
55435;SDS011;41307;53.142;6.430;2023-08-21T01:27:15;0.98;;;0.70;;
55435;SDS011;41307;53.142;6.430;2023-08-21T01:29:41;0.93;;;0.50;;
55435;SDS011;41307;53.142;6.430;2023-08-21T01:34:37;4.05;;;0.60;;
55435;SDS011;41307;53.142;6.430;2023-08-21T01:37:04;1.95;;;0.80;;
55435;SDS011;41307;53.142;6.430;2023-08-21T01:39:31;1.20;;;0.73;;
55435;SDS011;41307;53.142;6.430;2023-08-21T01:41:58;3.05;;;0.80;;
55435;SDS011;41307;53.142;6.430;2023-08-21T01:44:23;2.05;;;0.50;;
55435;SDS011;41307;53.142;6.430;2023-08-21T01:46:49;2.53;;;0.73;;
55435;SDS011;41307;53.142;6.430;2023-08-21T01:49:15;1.20;;;0.70;;
55435;SDS011;41307;53.142;6.430;2023-08-21T01:51:42;2.40;;;0.68;;
55435;SDS011;41307;53.142;6.430;2023-08-21T01:54:07;1.55;;;0.90;;
55435;SDS011;41307;53.142;6.430;2023-08-21T01:56:33;3.42;;;0.85;;
55435;SDS011;41307;53.142;6.430;2023-08-21T01:58:59;2.00;;;0.70;;
55435;SDS011;41307;53.142;6.430;2023-08-21T02:01:25;1.60;;;0.70;;
55435;SDS011;41307;53.142;6.430;2023-08-21T02:03:51;2.10;;;1.00;;
55435;SDS011;41307;53.142;6.430;2023-08-21T02:06:16;1.55;;;0.70;;
55435;SDS011;41307;53.142;6.430;2023-08-21T02:08:42;2.03;;;0.75;;
55435;SDS011;41307;53.142;6.430;2023-08-21T02:11:08;2.05;;;0.73;;
55435;SDS011;41307;53.142;6.430;2023-08-21T02:13:33;1.15;;;0.60;;
55435;SDS011;41307;53.142;6.430;2023-08-21T02:15:59;0.88;;;0.50;;
55435;SDS011;41307;53.142;6.430;2023-08-21T02:18:25;1.83;;;0.90;;
55435;SDS011;41307;53.142;6.430;2023-08-21T02:20:50;1.08;;;0.60;;
55435;SDS011;41307;53.142;6.430;2023-08-21T02:23:16;2.25;;;0.85;;
55435;SDS011;41307;53.142;6.430;2023-08-21T02:25:42;3.65;;;0.90;;
55435;SDS011;41307;53.142;6.430;2023-08-21T02:28:08;1.35;;;0.60;;
55435;SDS011;41307;53.142;6.430;2023-08-21T02:30:33;1.08;;;0.80;;
55435;SDS011;41307;53.142;6.430;2023-08-21T02:32:59;1.05;;;0.60;;
55435;SDS011;41307;53.142;6.430;2023-08-21T02:35:25;1.20;;;0.60;;
55435;SDS011;41307;53.142;6.430;2023-08-21T02:37:51;1.25;;;0.57;;
55435;SDS011;41307;53.142;6.430;2023-08-21T02:40:16;1.90;;;0.55;;
55435;SDS011;41307;53.142;6.430;2023-08-21T02:42:42;1.60;;;0.52;;
55435;SDS011;41307;53.142;6.430;2023-08-21T02:45:08;0.95;;;0.55;;
55435;SDS011;41307;53.142;6.430;2023-08-21T02:47:37;1.30;;;0.55;;
55435;SDS011;41307;53.142;6.430;2023-08-21T02:50:04;1.77;;;0.60;;
55435;SDS011;41307;53.142;6.430;2023-08-21T02:52:31;1.00;;;0.65;;
55435;SDS011;41307;53.142;6.430;2023-08-21T02:54:57;3.70;;;0.80;;
55435;SDS011;41307;53.142;6.430;2023-08-21T02:57:24;1.60;;;0.80;;
55435;SDS011;41307;53.142;6.430;2023-08-21T02:59:50;1.10;;;0.60;;
55435;SDS011;41307;53.142;6.430;2023-08-21T03:02:16;2.05;;;0.75;;
55435;SDS011;41307;53.142;6.430;2023-08-21T03:04:42;2.17;;;0.95;;
55435;SDS011;41307;53.142;6.430;2023-08-21T03:07:07;1.90;;;0.80;;
55435;SDS011;41307;53.142;6.430;2023-08-21T03:09:33;2.53;;;0.90;;
55435;SDS011;41307;53.142;6.430;2023-08-21T03:11:59;2.55;;;1.40;;
55435;SDS011;41307;53.142;6.430;2023-08-21T03:14:26;1.70;;;0.95;;
55435;SDS011;41307;53.142;6.430;2023-08-21T03:16:52;3.35;;;1.13;;
55435;SDS011;41307;53.142;6.430;2023-08-21T03:19:17;1.98;;;1.05;;
55435;SDS011;41307;53.142;6.430;2023-08-21T03:21:43;1.77;;;0.75;;
55435;SDS011;41307;53.142;6.430;2023-08-21T03:24:09;1.52;;;0.75;;
55435;SDS011;41307;53.142;6.430;2023-08-21T03:26:35;2.15;;;1.00;;
55435;SDS011;41307;53.142;6.430;2023-08-21T03:29:00;2.03;;;0.60;;
55435;SDS011;41307;53.142;6.430;2023-08-21T03:31:26;1.60;;;0.80;;
55435;SDS011;41307;53.142;6.430;2023-08-21T03:33:52;1.88;;;0.60;;
55435;SDS011;41307;53.142;6.430;2023-08-21T03:36:18;2.10;;;0.75;;
55435;SDS011;41307;53.142;6.430;2023-08-21T03:38:44;1.30;;;0.50;;
55435;SDS011;41307;53.142;6.430;2023-08-21T03:41:11;1.55;;;0.70;;
55435;SDS011;41307;53.142;6.430;2023-08-21T03:43:37;1.48;;;0.77;;
55435;SDS011;41307;53.142;6.430;2023-08-21T03:46:03;1.10;;;0.70;;
55435;SDS011;41307;53.142;6.430;2023-08-21T03:48:29;2.40;;;0.68;;
55435;SDS011;41307;53.142;6.430;2023-08-21T03:50:54;1.02;;;0.60;;
55435;SDS011;41307;53.142;6.430;2023-08-21T03:53:20;2.28;;;0.60;;
55435;SDS011;41307;53.142;6.430;2023-08-21T03:55:46;0.98;;;0.55;;
55435;SDS011;41307;53.142;6.430;2023-08-21T03:58:12;0.80;;;0.50;;
55435;SDS011;41307;53.142;6.430;2023-08-21T04:00:38;1.35;;;0.60;;
55435;SDS011;41307;53.142;6.430;2023-08-21T04:03:04;0.80;;;0.50;;
55435;SDS011;41307;53.142;6.430;2023-08-21T04:05:30;1.25;;;0.50;;
55435;SDS011;41307;53.142;6.430;2023-08-21T04:07:55;1.08;;;0.60;;
55435;SDS011;41307;53.142;6.430;2023-08-21T04:10:21;2.70;;;0.60;;
55435;SDS011;41307;53.142;6.430;2023-08-21T04:12:47;2.85;;;0.60;;
55435;SDS011;41307;53.142;6.430;2023-08-21T04:15:12;0.70;;;0.50;;
55435;SDS011;41307;53.142;6.430;2023-08-21T04:17:38;1.20;;;0.47;;
55435;SDS011;41307;53.142;6.430;2023-08-21T04:20:04;1.50;;;0.40;;
55435;SDS011;41307;53.142;6.430;2023-08-21T04:22:30;1.02;;;0.52;;
55435;SDS011;41307;53.142;6.430;2023-08-21T04:24:56;1.77;;;0.73;;
55435;SDS011;41307;53.142;6.430;2023-08-21T04:27:22;1.40;;;0.60;;
55435;SDS011;41307;53.142;6.430;2023-08-21T04:29:47;2.20;;;0.80;;
55435;SDS011;41307;53.142;6.430;2023-08-21T04:32:13;2.38;;;0.55;;
55435;SDS011;41307;53.142;6.430;2023-08-21T04:34:39;2.60;;;0.70;;
55435;SDS011;41307;53.142;6.430;2023-08-21T04:37:04;1.20;;;0.57;;
55435;SDS011;41307;53.142;6.430;2023-08-21T04:39:30;2.42;;;0.80;;
55435;SDS011;41307;53.142;6.430;2023-08-21T04:41:56;2.42;;;0.80;;
55435;SDS011;41307;53.142;6.430;2023-08-21T04:44:21;1.58;;;0.80;;
55435;SDS011;41307;53.142;6.430;2023-08-21T04:46:47;1.77;;;0.55;;
55435;SDS011;41307;53.142;6.430;2023-08-21T04:49:14;3.08;;;1.00;;
55435;SDS011;41307;53.142;6.430;2023-08-21T04:51:40;2.00;;;0.60;;
55435;SDS011;41307;53.142;6.430;2023-08-21T04:54:06;1.83;;;0.80;;
55435;SDS011;41307;53.142;6.430;2023-08-21T04:56:31;0.77;;;0.60;;
55435;SDS011;41307;53.142;6.430;2023-08-21T04:58:57;1.85;;;0.88;;
55435;SDS011;41307;53.142;6.430;2023-08-21T05:01:23;1.35;;;0.70;;
55435;SDS011;41307;53.142;6.430;2023-08-21T05:03:49;2.35;;;0.82;;
55435;SDS011;41307;53.142;6.430;2023-08-21T05:06:15;1.10;;;0.52;;
55435;SDS011;41307;53.142;6.430;2023-08-21T05:08:41;1.20;;;0.55;;
55435;SDS011;41307;53.142;6.430;2023-08-21T05:11:07;0.80;;;0.50;;
55435;SDS011;41307;53.142;6.430;2023-08-21T05:13:33;0.93;;;0.43;;
55435;SDS011;41307;53.142;6.430;2023-08-21T05:15:58;1.95;;;1.00;;
55435;SDS011;41307;53.142;6.430;2023-08-21T05:18:24;1.60;;;0.50;;
55435;SDS011;41307;53.142;6.430;2023-08-21T05:20:53;1.88;;;0.60;;
55435;SDS011;41307;53.142;6.430;2023-08-21T05:23:19;1.70;;;0.70;;
55435;SDS011;41307;53.142;6.430;2023-08-21T05:25:45;1.23;;;0.52;;
55435;SDS011;41307;53.142;6.430;2023-08-21T05:28:12;1.27;;;0.50;;
55435;SDS011;41307;53.142;6.430;2023-08-21T05:30:37;1.88;;;0.60;;
55435;SDS011;41307;53.142;6.430;2023-08-21T05:33:03;1.20;;;0.60;;
55435;SDS011;41307;53.142;6.430;2023-08-21T05:35:33;2.15;;;0.50;;
55435;SDS011;41307;53.142;6.430;2023-08-21T05:38:00;1.80;;;0.57;;
55435;SDS011;41307;53.142;6.430;2023-08-21T05:40:29;1.45;;;0.70;;
55435;SDS011;41307;53.142;6.430;2023-08-21T05:42:55;2.83;;;0.68;;
55435;SDS011;41307;53.142;6.430;2023-08-21T05:45:20;1.65;;;0.70;;
55435;SDS011;41307;53.142;6.430;2023-08-21T05:47:46;1.17;;;0.60;;
55435;SDS011;41307;53.142;6.430;2023-08-21T05:50:12;1.95;;;0.50;;
55435;SDS011;41307;53.142;6.430;2023-08-21T05:52:38;1.83;;;0.60;;
55435;SDS011;41307;53.142;6.430;2023-08-21T05:55:04;1.30;;;0.50;;
55435;SDS011;41307;53.142;6.430;2023-08-21T05:57:30;0.85;;;0.40;;
55435;SDS011;41307;53.142;6.430;2023-08-21T05:59:56;1.33;;;0.60;;
55435;SDS011;41307;53.142;6.430;2023-08-21T06:02:22;2.38;;;0.70;;
55435;SDS011;41307;53.142;6.430;2023-08-21T06:04:48;1.58;;;0.50;;
55435;SDS011;41307;53.142;6.430;2023-08-21T06:07:14;1.40;;;0.50;;
55435;SDS011;41307;53.142;6.430;2023-08-21T06:09:40;0.75;;;0.52;;
55435;SDS011;41307;53.142;6.430;2023-08-21T06:12:06;1.75;;;0.50;;
55435;SDS011;41307;53.142;6.430;2023-08-21T06:14:32;0.98;;;0.57;;
55435;SDS011;41307;53.142;6.430;2023-08-21T06:16:58;0.77;;;0.30;;
55435;SDS011;41307;53.142;6.430;2023-08-21T06:19:25;2.25;;;0.40;;
55435;SDS011;41307;53.142;6.430;2023-08-21T06:21:50;0.95;;;0.35;;
55435;SDS011;41307;53.142;6.430;2023-08-21T06:24:16;0.57;;;0.38;;
55435;SDS011;41307;53.142;6.430;2023-08-21T06:26:42;0.43;;;0.30;;
55435;SDS011;41307;53.142;6.430;2023-08-21T06:29:07;0.70;;;0.40;;
55435;SDS011;41307;53.142;6.430;2023-08-21T06:31:33;0.43;;;0.30;;
55435;SDS011;41307;53.142;6.430;2023-08-21T06:33:59;1.60;;;0.75;;
55435;SDS011;41307;53.142;6.430;2023-08-21T06:36:25;1.10;;;0.30;;
55435;SDS011;41307;53.142;6.430;2023-08-21T06:38:50;1.20;;;0.40;;
55435;SDS011;41307;53.142;6.430;2023-08-21T06:41:16;1.30;;;0.40;;
55435;SDS011;41307;53.142;6.430;2023-08-21T06:43:42;1.10;;;0.35;;
55435;SDS011;41307;53.142;6.430;2023-08-21T06:46:07;1.77;;;0.57;;
55435;SDS011;41307;53.142;6.430;2023-08-21T06:48:34;0.50;;;0.28;;
55435;SDS011;41307;53.142;6.430;2023-08-21T06:51:03;0.95;;;0.50;;
55435;SDS011;41307;53.142;6.430;2023-08-21T06:53:29;1.92;;;0.47;;
55435;SDS011;41307;53.142;6.430;2023-08-21T06:55:54;0.70;;;0.30;;
55435;SDS011;41307;53.142;6.430;2023-08-21T06:58:20;0.57;;;0.32;;
55435;SDS011;41307;53.142;6.430;2023-08-21T07:00:46;1.40;;;0.50;;
55435;SDS011;41307;53.142;6.430;2023-08-21T07:03:12;0.80;;;0.40;;
55435;SDS011;41307;53.142;6.430;2023-08-21T07:05:37;0.75;;;0.40;;
55435;SDS011;41307;53.142;6.430;2023-08-21T07:08:03;0.93;;;0.40;;
55435;SDS011;41307;53.142;6.430;2023-08-21T07:10:29;1.65;;;0.35;;
55435;SDS011;41307;53.142;6.430;2023-08-21T07:12:55;2.17;;;0.40;;
55435;SDS011;41307;53.142;6.430;2023-08-21T07:15:21;1.33;;;0.40;;
55435;SDS011;41307;53.142;6.430;2023-08-21T07:17:47;1.02;;;0.32;;
55435;SDS011;41307;53.142;6.430;2023-08-21T07:20:12;2.38;;;0.40;;
55435;SDS011;41307;53.142;6.430;2023-08-21T07:22:38;1.60;;;0.40;;
55435;SDS011;41307;53.142;6.430;2023-08-21T07:25:04;1.42;;;0.40;;
55435;SDS011;41307;53.142;6.430;2023-08-21T07:27:30;0.85;;;0.30;;
55435;SDS011;41307;53.142;6.430;2023-08-21T07:29:56;1.85;;;0.30;;
55435;SDS011;41307;53.142;6.430;2023-08-21T07:32:22;3.08;;;0.30;;
55435;SDS011;41307;53.142;6.430;2023-08-21T07:34:51;0.47;;;0.28;;
55435;SDS011;41307;53.142;6.430;2023-08-21T07:37:20;1.42;;;0.40;;
55435;SDS011;41307;53.142;6.430;2023-08-21T07:39:46;1.25;;;0.30;;
55435;SDS011;41307;53.142;6.430;2023-08-21T07:42:12;0.40;;;0.22;;
55435;SDS011;41307;53.142;6.430;2023-08-21T07:44:38;1.08;;;0.40;;
55435;SDS011;41307;53.142;6.430;2023-08-21T07:47:04;0.82;;;0.20;;
55435;SDS011;41307;53.142;6.430;2023-08-21T07:49:30;1.75;;;0.28;;
55435;SDS011;41307;53.142;6.430;2023-08-21T07:51:57;0.50;;;0.20;;
55435;SDS011;41307;53.142;6.430;2023-08-21T07:54:24;0.57;;;0.20;;
55435;SDS011;41307;53.142;6.430;2023-08-21T07:56:50;0.70;;;0.30;;
55435;SDS011;41307;53.142;6.430;2023-08-21T07:59:16;0.55;;;0.10;;
55435;SDS011;41307;53.142;6.430;2023-08-21T08:01:42;1.95;;;0.30;;
55435;SDS011;41307;53.142;6.430;2023-08-21T08:04:08;0.30;;;0.10;;
55435;SDS011;41307;53.142;6.430;2023-08-21T08:06:36;0.50;;;0.25;;
55435;SDS011;41307;53.142;6.430;2023-08-21T08:09:02;3.13;;;0.20;;
55435;SDS011;41307;53.142;6.430;2023-08-21T08:11:30;1.33;;;0.20;;
55435;SDS011;41307;53.142;6.430;2023-08-21T08:13:56;0.52;;;0.13;;
55435;SDS011;41307;53.142;6.430;2023-08-21T08:16:21;0.70;;;0.20;;
55435;SDS011;41307;53.142;6.430;2023-08-21T08:18:47;0.57;;;0.20;;
55435;SDS011;41307;53.142;6.430;2023-08-21T08:21:13;1.55;;;0.20;;
55435;SDS011;41307;53.142;6.430;2023-08-21T08:23:39;0.45;;;0.20;;
55435;SDS011;41307;53.142;6.430;2023-08-21T08:26:05;1.48;;;0.17;;
55435;SDS011;41307;53.142;6.430;2023-08-21T08:28:31;1.08;;;0.30;;
55435;SDS011;41307;53.142;6.430;2023-08-21T08:30:56;0.45;;;0.20;;
55435;SDS011;41307;53.142;6.430;2023-08-21T08:33:23;0.25;;;0.10;;
55435;SDS011;41307;53.142;6.430;2023-08-21T08:35:48;0.32;;;0.15;;
55435;SDS011;41307;53.142;6.430;2023-08-21T08:38:14;0.80;;;0.28;;
55435;SDS011;41307;53.142;6.430;2023-08-21T08:40:44;0.20;;;0.10;;
55435;SDS011;41307;53.142;6.430;2023-08-21T08:43:13;0.95;;;0.20;;
55435;SDS011;41307;53.142;6.430;2023-08-21T08:45:40;0.98;;;0.22;;
55435;SDS011;41307;53.142;6.430;2023-08-21T08:48:06;0.95;;;0.30;;
55435;SDS011;41307;53.142;6.430;2023-08-21T08:50:33;2.67;;;0.35;;
55435;SDS011;41307;53.142;6.430;2023-08-21T08:52:59;0.95;;;0.20;;
55435;SDS011;41307;53.142;6.430;2023-08-21T08:55:26;0.35;;;0.10;;
55435;SDS011;41307;53.142;6.430;2023-08-21T08:57:52;0.43;;;0.10;;
55435;SDS011;41307;53.142;6.430;2023-08-21T09:00:19;1.02;;;0.15;;
55435;SDS011;41307;53.142;6.430;2023-08-21T09:02:45;0.40;;;0.10;;
55435;SDS011;41307;53.142;6.430;2023-08-21T09:05:11;1.58;;;0.25;;
55435;SDS011;41307;53.142;6.430;2023-08-21T09:07:38;0.60;;;0.20;;
55435;SDS011;41307;53.142;6.430;2023-08-21T09:10:04;0.88;;;0.20;;
55435;SDS011;41307;53.142;6.430;2023-08-21T09:12:37;0.35;;;0.10;;
55435;SDS011;41307;53.142;6.430;2023-08-21T09:15:07;0.90;;;0.20;;
55435;SDS011;41307;53.142;6.430;2023-08-21T09:17:33;0.90;;;0.22;;
55435;SDS011;41307;53.142;6.430;2023-08-21T09:20:06;2.35;;;0.40;;
55435;SDS011;41307;53.142;6.430;2023-08-21T09:22:35;1.05;;;0.20;;
55435;SDS011;41307;53.142;6.430;2023-08-21T09:25:04;0.32;;;0.10;;
55435;SDS011;41307;53.142;6.430;2023-08-21T09:27:35;0.77;;;0.20;;
55435;SDS011;41307;53.142;6.430;2023-08-21T09:30:06;1.13;;;0.40;;
55435;SDS011;41307;53.142;6.430;2023-08-21T09:32:51;0.90;;;0.20;;
55435;SDS011;41307;53.142;6.430;2023-08-21T09:35:20;0.63;;;0.22;;
55435;SDS011;41307;53.142;6.430;2023-08-21T09:37:46;0.75;;;0.20;;
55435;SDS011;41307;53.142;6.430;2023-08-21T09:40:12;0.95;;;0.28;;
55435;SDS011;41307;53.142;6.430;2023-08-21T09:42:41;1.02;;;0.30;;
55435;SDS011;41307;53.142;6.430;2023-08-21T09:45:07;0.88;;;0.38;;
55435;SDS011;41307;53.142;6.430;2023-08-21T09:47:33;0.82;;;0.22;;
55435;SDS011;41307;53.142;6.430;2023-08-21T09:49:59;0.75;;;0.20;;
55435;SDS011;41307;53.142;6.430;2023-08-21T09:52:25;1.05;;;0.20;;
55435;SDS011;41307;53.142;6.430;2023-08-21T09:54:56;1.00;;;0.30;;
55435;SDS011;41307;53.142;6.430;2023-08-21T09:57:22;0.75;;;0.30;;
55435;SDS011;41307;53.142;6.430;2023-08-21T09:59:52;0.38;;;0.13;;
55435;SDS011;41307;53.142;6.430;2023-08-21T10:02:20;1.75;;;0.20;;
55435;SDS011;41307;53.142;6.430;2023-08-21T10:04:48;1.23;;;0.30;;
55435;SDS011;41307;53.142;6.430;2023-08-21T10:07:20;2.15;;;0.32;;
55435;SDS011;41307;53.142;6.430;2023-08-21T10:09:47;0.55;;;0.25;;
55435;SDS011;41307;53.142;6.430;2023-08-21T10:12:14;0.73;;;0.30;;
55435;SDS011;41307;53.142;6.430;2023-08-21T10:14:41;1.20;;;0.22;;
55435;SDS011;41307;53.142;6.430;2023-08-21T10:17:08;4.03;;;0.40;;
55435;SDS011;41307;53.142;6.430;2023-08-21T10:19:37;0.95;;;0.40;;
55435;SDS011;41307;53.142;6.430;2023-08-21T10:22:02;1.67;;;0.30;;
55435;SDS011;41307;53.142;6.430;2023-08-21T10:24:32;1.50;;;0.32;;
55435;SDS011;41307;53.142;6.430;2023-08-21T10:27:00;1.02;;;0.40;;
55435;SDS011;41307;53.142;6.430;2023-08-21T10:29:26;1.05;;;0.30;;
55435;SDS011;41307;53.142;6.430;2023-08-21T10:31:59;0.88;;;0.32;;
55435;SDS011;41307;53.142;6.430;2023-08-21T10:34:31;1.02;;;0.35;;
55435;SDS011;41307;53.142;6.430;2023-08-21T10:39:32;0.90;;;0.30;;
55435;SDS011;41307;53.142;6.430;2023-08-21T10:47:22;1.65;;;0.30;;
55435;SDS011;41307;53.142;6.430;2023-08-21T10:49:52;2.25;;;0.43;;
55435;SDS011;41307;53.142;6.430;2023-08-21T10:52:26;1.27;;;0.30;;
55435;SDS011;41307;53.142;6.430;2023-08-21T10:54:58;0.50;;;0.15;;
55435;SDS011;41307;53.142;6.430;2023-08-21T10:57:26;0.43;;;0.20;;
55435;SDS011;41307;53.142;6.430;2023-08-21T10:59:56;0.73;;;0.50;;
55435;SDS011;41307;53.142;6.430;2023-08-21T11:02:24;1.25;;;0.30;;
55435;SDS011;41307;53.142;6.430;2023-08-21T11:04:51;1.27;;;0.20;;
55435;SDS011;41307;53.142;6.430;2023-08-21T11:07:17;0.35;;;0.22;;
55435;SDS011;41307;53.142;6.430;2023-08-21T11:09:44;0.73;;;0.20;;
55435;SDS011;41307;53.142;6.430;2023-08-21T11:12:11;2.05;;;0.30;;
55435;SDS011;41307;53.142;6.430;2023-08-21T11:14:38;2.53;;;0.45;;
55435;SDS011;41307;53.142;6.430;2023-08-21T11:17:05;1.85;;;0.47;;
55435;SDS011;41307;53.142;6.430;2023-08-21T11:19:31;1.88;;;0.50;;
55435;SDS011;41307;53.142;6.430;2023-08-21T11:21:59;0.25;;;0.17;;
55435;SDS011;41307;53.142;6.430;2023-08-21T11:27:10;0.40;;;0.22;;
55435;SDS011;41307;53.142;6.430;2023-08-21T11:32:21;0.98;;;0.30;;
55435;SDS011;41307;53.142;6.430;2023-08-21T11:34:49;0.75;;;0.28;;
55435;SDS011;41307;53.142;6.430;2023-08-21T11:37:25;0.83;;;0.40;;
55435;SDS011;41307;53.142;6.430;2023-08-21T11:39:58;1.65;;;0.30;;
55435;SDS011;41307;53.142;6.430;2023-08-21T11:42:31;1.63;;;0.30;;
55435;SDS011;41307;53.142;6.430;2023-08-21T11:44:58;2.80;;;0.60;;
55435;SDS011;41307;53.142;6.430;2023-08-21T11:47:29;1.88;;;0.57;;
55435;SDS011;41307;53.142;6.430;2023-08-21T11:50:01;1.98;;;0.77;;
55435;SDS011;41307;53.142;6.430;2023-08-21T11:52:29;1.88;;;0.50;;
55435;SDS011;41307;53.142;6.430;2023-08-21T11:55:00;1.35;;;0.60;;
55435;SDS011;41307;53.142;6.430;2023-08-21T11:57:26;3.42;;;0.82;;
55435;SDS011;41307;53.142;6.430;2023-08-21T11:59:55;1.63;;;0.50;;
55435;SDS011;41307;53.142;6.430;2023-08-21T12:05:01;1.25;;;0.60;;
55435;SDS011;41307;53.142;6.430;2023-08-21T12:07:28;1.83;;;0.68;;
55435;SDS011;41307;53.142;6.430;2023-08-21T12:09:54;2.85;;;0.88;;
55435;SDS011;41307;53.142;6.430;2023-08-21T12:12:20;3.50;;;0.55;;
55435;SDS011;41307;53.142;6.430;2023-08-21T12:14:45;1.52;;;0.50;;
55435;SDS011;41307;53.142;6.430;2023-08-21T12:17:11;2.67;;;0.50;;
55435;SDS011;41307;53.142;6.430;2023-08-21T12:19:37;0.75;;;0.32;;
55435;SDS011;41307;53.142;6.430;2023-08-21T12:22:03;1.38;;;0.40;;
55435;SDS011;41307;53.142;6.430;2023-08-21T12:24:29;2.42;;;0.50;;
55435;SDS011;41307;53.142;6.430;2023-08-21T12:26:55;0.85;;;0.40;;
55435;SDS011;41307;53.142;6.430;2023-08-21T12:29:21;1.92;;;0.40;;
55435;SDS011;41307;53.142;6.430;2023-08-21T12:31:46;1.80;;;0.35;;
55435;SDS011;41307;53.142;6.430;2023-08-21T12:34:12;0.47;;;0.20;;
55435;SDS011;41307;53.142;6.430;2023-08-21T12:36:38;1.27;;;0.20;;
55435;SDS011;41307;53.142;6.430;2023-08-21T12:39:04;0.35;;;0.25;;
55435;SDS011;41307;53.142;6.430;2023-08-21T12:41:30;1.10;;;0.38;;
55435;SDS011;41307;53.142;6.430;2023-08-21T12:43:58;0.80;;;0.25;;
55435;SDS011;41307;53.142;6.430;2023-08-21T12:46:24;1.27;;;0.35;;
55435;SDS011;41307;53.142;6.430;2023-08-21T12:48:52;1.65;;;0.30;;
55435;SDS011;41307;53.142;6.430;2023-08-21T12:51:19;1.10;;;0.20;;
55435;SDS011;41307;53.142;6.430;2023-08-21T12:53:45;1.90;;;0.43;;
55435;SDS011;41307;53.142;6.430;2023-08-21T12:56:11;2.05;;;0.30;;
55435;SDS011;41307;53.142;6.430;2023-08-21T12:58:37;0.43;;;0.20;;
55435;SDS011;41307;53.142;6.430;2023-08-21T13:01:02;1.00;;;0.20;;
55435;SDS011;41307;53.142;6.430;2023-08-21T13:03:30;1.35;;;0.40;;
55435;SDS011;41307;53.142;6.430;2023-08-21T13:05:56;1.52;;;0.45;;
55435;SDS011;41307;53.142;6.430;2023-08-21T13:08:21;1.40;;;0.32;;
55435;SDS011;41307;53.142;6.430;2023-08-21T13:10:47;0.47;;;0.20;;
55435;SDS011;41307;53.142;6.430;2023-08-21T13:13:13;1.00;;;0.30;;
55435;SDS011;41307;53.142;6.430;2023-08-21T13:15:38;0.32;;;0.10;;
55435;SDS011;41307;53.142;6.430;2023-08-21T13:18:04;0.32;;;0.20;;
55435;SDS011;41307;53.142;6.430;2023-08-21T13:20:30;2.35;;;0.30;;
55435;SDS011;41307;53.142;6.430;2023-08-21T13:22:56;0.70;;;0.20;;
55435;SDS011;41307;53.142;6.430;2023-08-21T13:25:22;0.77;;;0.30;;
55435;SDS011;41307;53.142;6.430;2023-08-21T13:27:50;1.50;;;0.13;;
55435;SDS011;41307;53.142;6.430;2023-08-21T13:30:17;1.30;;;0.13;;
55435;SDS011;41307;53.142;6.430;2023-08-21T13:32:43;1.40;;;0.35;;
55435;SDS011;41307;53.142;6.430;2023-08-21T13:35:09;0.75;;;0.20;;
55435;SDS011;41307;53.142;6.430;2023-08-21T13:37:39;0.80;;;0.17;;
55435;SDS011;41307;53.142;6.430;2023-08-21T13:40:05;0.80;;;0.20;;
55435;SDS011;41307;53.142;6.430;2023-08-21T13:42:39;0.20;;;0.10;;
55435;SDS011;41307;53.142;6.430;2023-08-21T13:45:09;0.50;;;0.20;;
55435;SDS011;41307;53.142;6.430;2023-08-21T13:47:46;1.13;;;0.20;;
55435;SDS011;41307;53.142;6.430;2023-08-21T13:50:13;0.75;;;0.10;;
55435;SDS011;41307;53.142;6.430;2023-08-21T13:52:40;1.90;;;0.22;;
55435;SDS011;41307;53.142;6.430;2023-08-21T13:55:07;0.82;;;0.30;;
55435;SDS011;41307;53.142;6.430;2023-08-21T13:57:34;0.63;;;0.10;;
55435;SDS011;41307;53.142;6.430;2023-08-21T14:00:00;0.50;;;0.10;;
55435;SDS011;41307;53.142;6.430;2023-08-21T14:02:26;1.00;;;0.10;;
55435;SDS011;41307;53.142;6.430;2023-08-21T14:04:51;1.35;;;0.28;;
55435;SDS011;41307;53.142;6.430;2023-08-21T14:07:17;0.25;;;0.10;;
55435;SDS011;41307;53.142;6.430;2023-08-21T14:09:43;0.93;;;0.20;;
55435;SDS011;41307;53.142;6.430;2023-08-21T14:12:09;0.63;;;0.10;;
55435;SDS011;41307;53.142;6.430;2023-08-21T14:14:35;0.73;;;0.20;;
55435;SDS011;41307;53.142;6.430;2023-08-21T14:17:02;0.65;;;0.13;;
55435;SDS011;41307;53.142;6.430;2023-08-21T14:19:29;1.35;;;0.30;;
55435;SDS011;41307;53.142;6.430;2023-08-21T14:21:57;0.28;;;0.10;;
55435;SDS011;41307;53.142;6.430;2023-08-21T14:24:24;0.28;;;0.10;;
55435;SDS011;41307;53.142;6.430;2023-08-21T14:26:50;0.20;;;0.10;;
55435;SDS011;41307;53.142;6.430;2023-08-21T14:29:15;0.28;;;0.10;;
55435;SDS011;41307;53.142;6.430;2023-08-21T14:31:41;0.57;;;0.20;;
55435;SDS011;41307;53.142;6.430;2023-08-21T14:34:07;0.30;;;0.10;;
55435;SDS011;41307;53.142;6.430;2023-08-21T14:36:33;0.22;;;0.10;;
55435;SDS011;41307;53.142;6.430;2023-08-21T14:38:58;0.60;;;0.10;;
55435;SDS011;41307;53.142;6.430;2023-08-21T14:41:24;0.80;;;0.20;;
55435;SDS011;41307;53.142;6.430;2023-08-21T14:43:50;0.47;;;0.20;;
55435;SDS011;41307;53.142;6.430;2023-08-21T14:46:16;0.57;;;0.10;;
55435;SDS011;41307;53.142;6.430;2023-08-21T14:48:41;0.90;;;0.20;;
55435;SDS011;41307;53.142;6.430;2023-08-21T14:51:07;0.63;;;0.15;;
55435;SDS011;41307;53.142;6.430;2023-08-21T14:53:33;0.47;;;0.20;;
55435;SDS011;41307;53.142;6.430;2023-08-21T14:55:59;0.30;;;0.10;;
55435;SDS011;41307;53.142;6.430;2023-08-21T14:58:24;1.25;;;0.10;;
55435;SDS011;41307;53.142;6.430;2023-08-21T15:00:53;0.50;;;0.10;;
55435;SDS011;41307;53.142;6.430;2023-08-21T15:03:23;0.52;;;0.20;;
55435;SDS011;41307;53.142;6.430;2023-08-21T15:05:49;0.30;;;0.10;;